sensor_id;sensor_type;location;lat;lon;timestamp;temperature;humidity
12520;DHT22;6325;49.540;8.364;2024-01-16T00:00:31;0.40;99.90
12520;DHT22;6325;49.540;8.364;2024-01-16T00:02:59;0.80;99.90
12520;DHT22;6325;49.540;8.364;2024-01-16T00:05:26;1.00;99.90
12520;DHT22;6325;49.540;8.364;2024-01-16T00:07:53;1.20;99.90
12520;DHT22;6325;49.540;8.364;2024-01-16T00:12:45;0.40;99.90
12520;DHT22;6325;49.540;8.364;2024-01-16T00:15:12;1.00;99.90
12520;DHT22;6325;49.540;8.364;2024-01-16T00:17:39;1.00;99.90
12520;DHT22;6325;49.540;8.364;2024-01-16T00:20:08;1.40;99.90
12520;DHT22;6325;49.540;8.364;2024-01-16T00:22:36;1.20;99.90
12520;DHT22;6325;49.540;8.364;2024-01-16T00:25:03;1.00;99.90
12520;DHT22;6325;49.540;8.364;2024-01-16T00:27:30;1.30;99.90
12520;DHT22;6325;49.540;8.364;2024-01-16T00:29:57;0.70;99.90
12520;DHT22;6325;49.540;8.364;2024-01-16T00:32:24;0.90;99.90
12520;DHT22;6325;49.540;8.364;2024-01-16T00:34:50;1.00;99.90
12520;DHT22;6325;49.540;8.364;2024-01-16T00:37:18;0.70;99.90
12520;DHT22;6325;49.540;8.364;2024-01-16T00:39:46;0.70;99.90
12520;DHT22;6325;49.540;8.364;2024-01-16T00:42:13;0.50;99.90
12520;DHT22;6325;49.540;8.364;2024-01-16T00:44:40;0.60;99.90
12520;DHT22;6325;49.540;8.364;2024-01-16T00:47:06;0.40;99.90
12520;DHT22;6325;49.540;8.364;2024-01-16T00:49:35;0.60;99.90
12520;DHT22;6325;49.540;8.364;2024-01-16T00:52:01;0.70;99.90
12520;DHT22;6325;49.540;8.364;2024-01-16T00:54:29;0.70;99.90
12520;DHT22;6325;49.540;8.364;2024-01-16T00:56:56;-0.20;99.90
12520;DHT22;6325;49.540;8.364;2024-01-16T00:59:25;0.30;99.90
12520;DHT22;6325;49.540;8.364;2024-01-16T01:01:52;0.30;99.90
12520;DHT22;6325;49.540;8.364;2024-01-16T01:04:18;0.20;99.90
12520;DHT22;6325;49.540;8.364;2024-01-16T01:06:45;0.30;99.90
12520;DHT22;6325;49.540;8.364;2024-01-16T01:09:12;0.10;99.90
12520;DHT22;6325;49.540;8.364;2024-01-16T01:11:40;0.60;99.90
12520;DHT22;6325;49.540;8.364;2024-01-16T01:14:07;0.30;99.90
12520;DHT22;6325;49.540;8.364;2024-01-16T01:16:34;0.50;99.90
12520;DHT22;6325;49.540;8.364;2024-01-16T01:19:00;-0.10;99.90
12520;DHT22;6325;49.540;8.364;2024-01-16T01:21:27;0.20;99.90
12520;DHT22;6325;49.540;8.364;2024-01-16T01:23:54;0.30;99.90
12520;DHT22;6325;49.540;8.364;2024-01-16T01:26:20;0.30;99.90
12520;DHT22;6325;49.540;8.364;2024-01-16T01:28:49;0.20;99.90
12520;DHT22;6325;49.540;8.364;2024-01-16T01:31:15;0.30;99.90
12520;DHT22;6325;49.540;8.364;2024-01-16T01:33:42;-0.30;99.90
12520;DHT22;6325;49.540;8.364;2024-01-16T01:36:09;-0.10;99.90
12520;DHT22;6325;49.540;8.364;2024-01-16T01:38:36;-0.10;99.90
12520;DHT22;6325;49.540;8.364;2024-01-16T01:41:03;0.30;99.90
12520;DHT22;6325;49.540;8.364;2024-01-16T01:43:30;0.30;99.90
12520;DHT22;6325;49.540;8.364;2024-01-16T01:46:09;0.00;99.90
12520;DHT22;6325;49.540;8.364;2024-01-16T01:48:36;-0.20;99.90
12520;DHT22;6325;49.540;8.364;2024-01-16T01:51:04;0.00;99.90
12520;DHT22;6325;49.540;8.364;2024-01-16T01:53:31;0.70;99.90
12520;DHT22;6325;49.540;8.364;2024-01-16T01:56:03;-0.20;99.90
12520;DHT22;6325;49.540;8.364;2024-01-16T01:58:31;0.30;99.90
12520;DHT22;6325;49.540;8.364;2024-01-16T02:01:01;0.30;99.90
12520;DHT22;6325;49.540;8.364;2024-01-16T02:03:29;0.30;99.90
12520;DHT22;6325;49.540;8.364;2024-01-16T02:05:59;0.50;99.90
12520;DHT22;6325;49.540;8.364;2024-01-16T02:08:28;-0.10;99.90
12520;DHT22;6325;49.540;8.364;2024-01-16T02:10:55;0.80;99.90
12520;DHT22;6325;49.540;8.364;2024-01-16T02:13:22;0.10;99.90
12520;DHT22;6325;49.540;8.364;2024-01-16T02:15:49;0.50;99.90
12520;DHT22;6325;49.540;8.364;2024-01-16T02:18:17;0.50;99.90
12520;DHT22;6325;49.540;8.364;2024-01-16T02:20:44;0.50;99.90
12520;DHT22;6325;49.540;8.364;2024-01-16T02:23:13;0.10;99.90
12520;DHT22;6325;49.540;8.364;2024-01-16T02:25:43;0.60;99.90
12520;DHT22;6325;49.540;8.364;2024-01-16T02:28:10;0.70;99.90
12520;DHT22;6325;49.540;8.364;2024-01-16T02:30:38;0.60;99.90
12520;DHT22;6325;49.540;8.364;2024-01-16T02:33:06;0.50;99.90
12520;DHT22;6325;49.540;8.364;2024-01-16T02:35:33;0.30;99.90
12520;DHT22;6325;49.540;8.364;2024-01-16T02:38:00;-0.40;99.90
12520;DHT22;6325;49.540;8.364;2024-01-16T02:40:27;0.60;99.90
12520;DHT22;6325;49.540;8.364;2024-01-16T02:42:55;0.50;99.90
12520;DHT22;6325;49.540;8.364;2024-01-16T02:45:22;-0.10;99.90
12520;DHT22;6325;49.540;8.364;2024-01-16T02:47:49;0.40;99.90
12520;DHT22;6325;49.540;8.364;2024-01-16T02:50:16;0.20;99.90
12520;DHT22;6325;49.540;8.364;2024-01-16T02:52:42;0.00;99.90
12520;DHT22;6325;49.540;8.364;2024-01-16T02:55:09;0.70;99.90
12520;DHT22;6325;49.540;8.364;2024-01-16T02:57:36;0.00;99.90
12520;DHT22;6325;49.540;8.364;2024-01-16T03:00:05;0.00;99.90
12520;DHT22;6325;49.540;8.364;2024-01-16T03:02:33;0.60;99.90
12520;DHT22;6325;49.540;8.364;2024-01-16T03:05:00;0.30;99.90
12520;DHT22;6325;49.540;8.364;2024-01-16T03:07:29;0.50;99.90
12520;DHT22;6325;49.540;8.364;2024-01-16T03:09:55;-0.60;99.90
12520;DHT22;6325;49.540;8.364;2024-01-16T03:12:22;0.60;99.90
12520;DHT22;6325;49.540;8.364;2024-01-16T03:14:49;0.00;99.90
12520;DHT22;6325;49.540;8.364;2024-01-16T03:17:17;-0.50;99.90
12520;DHT22;6325;49.540;8.364;2024-01-16T03:19:44;0.40;99.90
12520;DHT22;6325;49.540;8.364;2024-01-16T03:22:10;0.20;99.90
12520;DHT22;6325;49.540;8.364;2024-01-16T03:24:38;0.20;99.90
12520;DHT22;6325;49.540;8.364;2024-01-16T03:27:05;-0.30;99.90
12520;DHT22;6325;49.540;8.364;2024-01-16T03:29:31;-0.40;99.90
12520;DHT22;6325;49.540;8.364;2024-01-16T03:31:59;0.00;99.90
12520;DHT22;6325;49.540;8.364;2024-01-16T03:34:27;-0.40;99.90
12520;DHT22;6325;49.540;8.364;2024-01-16T03:36:54;-0.10;99.90
12520;DHT22;6325;49.540;8.364;2024-01-16T03:39:21;-0.20;99.90
12520;DHT22;6325;49.540;8.364;2024-01-16T03:41:48;-0.30;99.90
12520;DHT22;6325;49.540;8.364;2024-01-16T03:44:15;-0.70;99.90
12520;DHT22;6325;49.540;8.364;2024-01-16T03:46:41;0.00;99.90
12520;DHT22;6325;49.540;8.364;2024-01-16T03:49:08;-0.30;99.90
12520;DHT22;6325;49.540;8.364;2024-01-16T03:51:36;-0.20;99.90
12520;DHT22;6325;49.540;8.364;2024-01-16T03:54:03;-1.10;99.90
12520;DHT22;6325;49.540;8.364;2024-01-16T03:56:30;0.00;99.90
12520;DHT22;6325;49.540;8.364;2024-01-16T03:58:57;-0.10;99.90
12520;DHT22;6325;49.540;8.364;2024-01-16T04:01:30;-0.40;99.90
12520;DHT22;6325;49.540;8.364;2024-01-16T04:03:57;-0.40;99.90
12520;DHT22;6325;49.540;8.364;2024-01-16T04:06:24;-0.60;99.90
12520;DHT22;6325;49.540;8.364;2024-01-16T04:08:53;-0.20;99.90
12520;DHT22;6325;49.540;8.364;2024-01-16T04:11:19;-0.40;99.90
12520;DHT22;6325;49.540;8.364;2024-01-16T04:13:46;-0.60;99.90
12520;DHT22;6325;49.540;8.364;2024-01-16T04:16:13;0.00;99.90
12520;DHT22;6325;49.540;8.364;2024-01-16T04:18:41;-0.10;99.90
12520;DHT22;6325;49.540;8.364;2024-01-16T04:21:09;-0.30;99.90
12520;DHT22;6325;49.540;8.364;2024-01-16T04:23:36;0.10;99.90
12520;DHT22;6325;49.540;8.364;2024-01-16T04:26:04;-0.40;99.90
12520;DHT22;6325;49.540;8.364;2024-01-16T04:28:31;-0.50;99.90
12520;DHT22;6325;49.540;8.364;2024-01-16T04:30:57;-0.20;99.90
12520;DHT22;6325;49.540;8.364;2024-01-16T04:33:24;-0.30;99.90
12520;DHT22;6325;49.540;8.364;2024-01-16T04:35:50;0.00;99.90
12520;DHT22;6325;49.540;8.364;2024-01-16T04:38:17;-0.10;99.90
12520;DHT22;6325;49.540;8.364;2024-01-16T04:40:44;-0.50;99.90
12520;DHT22;6325;49.540;8.364;2024-01-16T04:43:12;-0.50;99.90
12520;DHT22;6325;49.540;8.364;2024-01-16T04:45:39;-0.50;99.90
12520;DHT22;6325;49.540;8.364;2024-01-16T04:48:05;-0.80;99.90
12520;DHT22;6325;49.540;8.364;2024-01-16T04:50:33;-0.60;99.90
12520;DHT22;6325;49.540;8.364;2024-01-16T04:53:00;-0.90;99.90
12520;DHT22;6325;49.540;8.364;2024-01-16T04:55:28;-0.40;99.90
12520;DHT22;6325;49.540;8.364;2024-01-16T04:57:55;-1.30;99.90
12520;DHT22;6325;49.540;8.364;2024-01-16T05:00:23;-0.30;99.90
12520;DHT22;6325;49.540;8.364;2024-01-16T05:02:50;-0.80;99.90
12520;DHT22;6325;49.540;8.364;2024-01-16T05:05:17;-1.10;99.90
12520;DHT22;6325;49.540;8.364;2024-01-16T05:07:44;-0.90;99.90
12520;DHT22;6325;49.540;8.364;2024-01-16T05:10:11;-0.70;99.90
12520;DHT22;6325;49.540;8.364;2024-01-16T05:12:39;-0.80;99.90
12520;DHT22;6325;49.540;8.364;2024-01-16T05:15:06;-1.10;99.90
12520;DHT22;6325;49.540;8.364;2024-01-16T05:17:35;-0.30;99.90
12520;DHT22;6325;49.540;8.364;2024-01-16T05:20:02;-0.90;99.90
12520;DHT22;6325;49.540;8.364;2024-01-16T05:22:30;-0.30;99.90
12520;DHT22;6325;49.540;8.364;2024-01-16T05:24:57;-1.00;99.90
12520;DHT22;6325;49.540;8.364;2024-01-16T05:27:23;-0.30;99.90
12520;DHT22;6325;49.540;8.364;2024-01-16T05:29:50;-0.50;99.90
12520;DHT22;6325;49.540;8.364;2024-01-16T05:32:17;-1.00;99.90
12520;DHT22;6325;49.540;8.364;2024-01-16T05:34:45;-0.40;99.90
12520;DHT22;6325;49.540;8.364;2024-01-16T05:37:12;-0.20;99.90
12520;DHT22;6325;49.540;8.364;2024-01-16T05:39:39;-1.00;99.90
12520;DHT22;6325;49.540;8.364;2024-01-16T05:42:06;-0.70;99.90
12520;DHT22;6325;49.540;8.364;2024-01-16T05:44:33;-1.00;99.90
12520;DHT22;6325;49.540;8.364;2024-01-16T05:46:59;-1.00;99.90
12520;DHT22;6325;49.540;8.364;2024-01-16T05:49:26;-0.70;99.90
12520;DHT22;6325;49.540;8.364;2024-01-16T05:51:54;-0.50;99.90
12520;DHT22;6325;49.540;8.364;2024-01-16T05:54:21;-0.80;99.90
12520;DHT22;6325;49.540;8.364;2024-01-16T05:56:48;-0.60;99.90
12520;DHT22;6325;49.540;8.364;2024-01-16T05:59:15;-0.80;99.90
12520;DHT22;6325;49.540;8.364;2024-01-16T06:01:42;-0.80;99.90
12520;DHT22;6325;49.540;8.364;2024-01-16T06:04:09;-1.30;99.90
12520;DHT22;6325;49.540;8.364;2024-01-16T06:06:35;-0.80;99.90
12520;DHT22;6325;49.540;8.364;2024-01-16T06:09:04;-0.70;99.90
12520;DHT22;6325;49.540;8.364;2024-01-16T06:11:32;-1.40;99.90
12520;DHT22;6325;49.540;8.364;2024-01-16T06:14:00;-1.30;99.90
12520;DHT22;6325;49.540;8.364;2024-01-16T06:16:27;-0.70;99.90
12520;DHT22;6325;49.540;8.364;2024-01-16T06:18:55;-1.40;99.90
12520;DHT22;6325;49.540;8.364;2024-01-16T06:21:22;-1.50;99.90
12520;DHT22;6325;49.540;8.364;2024-01-16T06:23:49;-1.00;99.90
12520;DHT22;6325;49.540;8.364;2024-01-16T06:26:17;-0.80;99.90
12520;DHT22;6325;49.540;8.364;2024-01-16T06:28:44;-0.80;99.90
12520;DHT22;6325;49.540;8.364;2024-01-16T06:31:11;-1.60;99.90
12520;DHT22;6325;49.540;8.364;2024-01-16T06:33:38;-1.20;99.90
12520;DHT22;6325;49.540;8.364;2024-01-16T06:36:06;-1.10;99.90
12520;DHT22;6325;49.540;8.364;2024-01-16T06:38:32;-1.10;99.90
12520;DHT22;6325;49.540;8.364;2024-01-16T06:40:59;-1.60;99.90
12520;DHT22;6325;49.540;8.364;2024-01-16T06:43:28;-1.10;99.90
12520;DHT22;6325;49.540;8.364;2024-01-16T06:45:55;-1.10;99.90
12520;DHT22;6325;49.540;8.364;2024-01-16T06:48:22;-0.90;99.90
12520;DHT22;6325;49.540;8.364;2024-01-16T06:50:48;-1.10;99.90
12520;DHT22;6325;49.540;8.364;2024-01-16T06:53:15;-1.20;99.90
12520;DHT22;6325;49.540;8.364;2024-01-16T06:55:42;-1.00;99.90
12520;DHT22;6325;49.540;8.364;2024-01-16T06:58:09;-1.30;99.90
12520;DHT22;6325;49.540;8.364;2024-01-16T07:00:37;-1.00;99.90
12520;DHT22;6325;49.540;8.364;2024-01-16T07:03:07;-1.30;99.90
12520;DHT22;6325;49.540;8.364;2024-01-16T07:05:33;-1.60;99.90
12520;DHT22;6325;49.540;8.364;2024-01-16T07:08:00;-1.00;99.90
12520;DHT22;6325;49.540;8.364;2024-01-16T07:10:27;-1.40;99.90
12520;DHT22;6325;49.540;8.364;2024-01-16T07:12:54;-1.30;99.90
12520;DHT22;6325;49.540;8.364;2024-01-16T07:15:22;-0.50;99.90
12520;DHT22;6325;49.540;8.364;2024-01-16T07:17:50;-1.10;99.90
12520;DHT22;6325;49.540;8.364;2024-01-16T07:20:16;-1.10;99.90
12520;DHT22;6325;49.540;8.364;2024-01-16T07:22:43;-1.40;99.90
12520;DHT22;6325;49.540;8.364;2024-01-16T07:25:10;-0.90;99.90
12520;DHT22;6325;49.540;8.364;2024-01-16T07:27:38;-0.50;99.90
12520;DHT22;6325;49.540;8.364;2024-01-16T07:30:05;-0.50;99.90
12520;DHT22;6325;49.540;8.364;2024-01-16T07:32:32;-0.80;99.90
12520;DHT22;6325;49.540;8.364;2024-01-16T07:35:01;-0.50;99.90
12520;DHT22;6325;49.540;8.364;2024-01-16T07:37:28;-0.50;99.90
12520;DHT22;6325;49.540;8.364;2024-01-16T07:39:55;-1.10;99.90
12520;DHT22;6325;49.540;8.364;2024-01-16T07:42:22;-0.70;99.90
12520;DHT22;6325;49.540;8.364;2024-01-16T07:44:49;-1.00;99.90
12520;DHT22;6325;49.540;8.364;2024-01-16T07:47:16;-0.90;99.90
12520;DHT22;6325;49.540;8.364;2024-01-16T07:49:43;-1.10;99.90
12520;DHT22;6325;49.540;8.364;2024-01-16T07:52:11;-0.50;99.90
12520;DHT22;6325;49.540;8.364;2024-01-16T07:54:38;-1.20;99.90
12520;DHT22;6325;49.540;8.364;2024-01-16T07:57:05;-0.30;99.90
12520;DHT22;6325;49.540;8.364;2024-01-16T07:59:32;-0.10;99.90
12520;DHT22;6325;49.540;8.364;2024-01-16T08:01:59;0.00;99.90
12520;DHT22;6325;49.540;8.364;2024-01-16T08:04:25;-0.30;99.90
12520;DHT22;6325;49.540;8.364;2024-01-16T08:06:52;-0.10;99.90
12520;DHT22;6325;49.540;8.364;2024-01-16T08:09:21;-0.90;99.90
12520;DHT22;6325;49.540;8.364;2024-01-16T08:11:47;-0.20;99.90
12520;DHT22;6325;49.540;8.364;2024-01-16T08:14:14;-0.50;99.90
12520;DHT22;6325;49.540;8.364;2024-01-16T08:16:41;-0.60;99.90
12520;DHT22;6325;49.540;8.364;2024-01-16T08:19:08;0.00;99.90
12520;DHT22;6325;49.540;8.364;2024-01-16T08:21:34;-0.30;99.90
12520;DHT22;6325;49.540;8.364;2024-01-16T08:24:01;-0.50;99.90
12520;DHT22;6325;49.540;8.364;2024-01-16T08:26:30;0.10;99.90
12520;DHT22;6325;49.540;8.364;2024-01-16T08:28:58;-0.40;99.90
12520;DHT22;6325;49.540;8.364;2024-01-16T08:31:24;-0.50;99.90
12520;DHT22;6325;49.540;8.364;2024-01-16T08:33:51;0.20;99.90
12520;DHT22;6325;49.540;8.364;2024-01-16T08:36:21;0.20;99.90
12520;DHT22;6325;49.540;8.364;2024-01-16T08:38:48;-0.20;99.90
12520;DHT22;6325;49.540;8.364;2024-01-16T08:41:15;0.30;99.90
12520;DHT22;6325;49.540;8.364;2024-01-16T08:43:43;0.30;99.90
12520;DHT22;6325;49.540;8.364;2024-01-16T08:46:10;0.40;99.90
12520;DHT22;6325;49.540;8.364;2024-01-16T08:48:37;0.20;99.90
12520;DHT22;6325;49.540;8.364;2024-01-16T08:51:08;0.70;99.90
12520;DHT22;6325;49.540;8.364;2024-01-16T08:53:37;0.60;99.90
12520;DHT22;6325;49.540;8.364;2024-01-16T08:56:04;0.30;99.90
12520;DHT22;6325;49.540;8.364;2024-01-16T08:58:32;0.20;99.90
12520;DHT22;6325;49.540;8.364;2024-01-16T09:01:02;0.10;99.90
12520;DHT22;6325;49.540;8.364;2024-01-16T09:03:30;-0.10;99.90
12520;DHT22;6325;49.540;8.364;2024-01-16T09:05:57;0.00;99.90
12520;DHT22;6325;49.540;8.364;2024-01-16T09:08:26;-0.30;99.90
12520;DHT22;6325;49.540;8.364;2024-01-16T09:10:53;0.00;99.90
12520;DHT22;6325;49.540;8.364;2024-01-16T09:13:20;0.50;99.90
12520;DHT22;6325;49.540;8.364;2024-01-16T09:15:49;1.00;99.90
12520;DHT22;6325;49.540;8.364;2024-01-16T09:18:17;0.90;99.90
12520;DHT22;6325;49.540;8.364;2024-01-16T09:20:44;0.30;99.90
12520;DHT22;6325;49.540;8.364;2024-01-16T09:23:11;0.60;99.90
12520;DHT22;6325;49.540;8.364;2024-01-16T09:25:38;0.80;99.90
12520;DHT22;6325;49.540;8.364;2024-01-16T09:28:05;0.70;99.90
12520;DHT22;6325;49.540;8.364;2024-01-16T09:30:32;0.50;99.90
12520;DHT22;6325;49.540;8.364;2024-01-16T09:32:58;1.10;99.90
12520;DHT22;6325;49.540;8.364;2024-01-16T09:35:27;0.70;99.90
12520;DHT22;6325;49.540;8.364;2024-01-16T09:37:53;1.10;99.90
12520;DHT22;6325;49.540;8.364;2024-01-16T09:40:20;1.00;99.90
12520;DHT22;6325;49.540;8.364;2024-01-16T09:42:47;1.20;99.90
12520;DHT22;6325;49.540;8.364;2024-01-16T09:45:19;0.90;99.90
12520;DHT22;6325;49.540;8.364;2024-01-16T09:47:47;0.70;99.90
12520;DHT22;6325;49.540;8.364;2024-01-16T09:50:16;1.00;99.90
12520;DHT22;6325;49.540;8.364;2024-01-16T09:52:45;1.30;99.90
12520;DHT22;6325;49.540;8.364;2024-01-16T09:55:12;1.00;99.90
12520;DHT22;6325;49.540;8.364;2024-01-16T09:57:40;1.20;99.90
12520;DHT22;6325;49.540;8.364;2024-01-16T10:00:09;0.90;99.90
12520;DHT22;6325;49.540;8.364;2024-01-16T10:02:38;1.40;99.90
12520;DHT22;6325;49.540;8.364;2024-01-16T10:05:05;1.30;99.90
12520;DHT22;6325;49.540;8.364;2024-01-16T10:07:34;1.60;99.90
12520;DHT22;6325;49.540;8.364;2024-01-16T10:10:05;1.10;99.90
12520;DHT22;6325;49.540;8.364;2024-01-16T10:12:32;1.10;99.90
12520;DHT22;6325;49.540;8.364;2024-01-16T10:14:59;0.90;99.90
12520;DHT22;6325;49.540;8.364;2024-01-16T10:17:35;0.80;99.90
12520;DHT22;6325;49.540;8.364;2024-01-16T10:20:03;0.90;99.90
12520;DHT22;6325;49.540;8.364;2024-01-16T10:22:30;1.80;99.90
12520;DHT22;6325;49.540;8.364;2024-01-16T10:25:16;1.70;99.90
12520;DHT22;6325;49.540;8.364;2024-01-16T10:27:45;1.40;99.90
12520;DHT22;6325;49.540;8.364;2024-01-16T10:30:13;1.50;99.90
12520;DHT22;6325;49.540;8.364;2024-01-16T10:32:41;1.70;99.90
12520;DHT22;6325;49.540;8.364;2024-01-16T10:35:10;1.60;99.90
12520;DHT22;6325;49.540;8.364;2024-01-16T10:37:47;1.10;99.90
12520;DHT22;6325;49.540;8.364;2024-01-16T10:40:19;1.60;99.90
12520;DHT22;6325;49.540;8.364;2024-01-16T10:42:46;1.40;99.90
12520;DHT22;6325;49.540;8.364;2024-01-16T10:45:23;1.40;99.90
12520;DHT22;6325;49.540;8.364;2024-01-16T10:48:00;1.10;99.90
12520;DHT22;6325;49.540;8.364;2024-01-16T10:50:27;1.10;99.90
12520;DHT22;6325;49.540;8.364;2024-01-16T10:52:54;1.50;99.90
12520;DHT22;6325;49.540;8.364;2024-01-16T10:55:23;1.90;99.90
12520;DHT22;6325;49.540;8.364;2024-01-16T10:57:50;1.80;99.90
12520;DHT22;6325;49.540;8.364;2024-01-16T11:00:19;1.70;99.90
12520;DHT22;6325;49.540;8.364;2024-01-16T11:02:50;2.10;99.90
12520;DHT22;6325;49.540;8.364;2024-01-16T11:05:17;1.90;99.90
12520;DHT22;6325;49.540;8.364;2024-01-16T11:07:44;1.40;99.90
12520;DHT22;6325;49.540;8.364;2024-01-16T11:10:11;1.70;99.90
12520;DHT22;6325;49.540;8.364;2024-01-16T11:12:40;1.60;99.90
12520;DHT22;6325;49.540;8.364;2024-01-16T11:15:10;2.10;99.90
12520;DHT22;6325;49.540;8.364;2024-01-16T11:17:38;2.50;99.90
12520;DHT22;6325;49.540;8.364;2024-01-16T11:20:08;2.50;99.90
12520;DHT22;6325;49.540;8.364;2024-01-16T11:22:37;2.70;99.90
12520;DHT22;6325;49.540;8.364;2024-01-16T11:25:10;1.70;99.90
12520;DHT22;6325;49.540;8.364;2024-01-16T11:27:37;2.50;99.90
12520;DHT22;6325;49.540;8.364;2024-01-16T11:30:07;2.70;99.90
12520;DHT22;6325;49.540;8.364;2024-01-16T11:32:36;1.80;99.90
12520;DHT22;6325;49.540;8.364;2024-01-16T11:35:03;2.00;99.90
12520;DHT22;6325;49.540;8.364;2024-01-16T11:37:31;2.60;99.90
12520;DHT22;6325;49.540;8.364;2024-01-16T11:40:24;1.80;99.90
12520;DHT22;6325;49.540;8.364;2024-01-16T11:42:53;2.50;99.90
12520;DHT22;6325;49.540;8.364;2024-01-16T11:45:50;2.30;99.90
12520;DHT22;6325;49.540;8.364;2024-01-16T11:48:18;2.30;99.90
12520;DHT22;6325;49.540;8.364;2024-01-16T11:50:46;2.60;99.90
12520;DHT22;6325;49.540;8.364;2024-01-16T11:53:32;2.50;99.90
12520;DHT22;6325;49.540;8.364;2024-01-16T11:59:07;2.30;99.90
12520;DHT22;6325;49.540;8.364;2024-01-16T12:01:36;2.70;99.90
12520;DHT22;6325;49.540;8.364;2024-01-16T12:04:05;3.50;99.90
12520;DHT22;6325;49.540;8.364;2024-01-16T12:06:33;3.60;99.90
12520;DHT22;6325;49.540;8.364;2024-01-16T12:09:18;3.00;99.90
12520;DHT22;6325;49.540;8.364;2024-01-16T12:11:55;3.30;99.90
12520;DHT22;6325;49.540;8.364;2024-01-16T12:14:23;3.40;99.90
12520;DHT22;6325;49.540;8.364;2024-01-16T12:16:51;3.70;99.90
12520;DHT22;6325;49.540;8.364;2024-01-16T12:19:18;3.80;99.90
12520;DHT22;6325;49.540;8.364;2024-01-16T12:21:45;3.20;99.90
12520;DHT22;6325;49.540;8.364;2024-01-16T12:24:12;4.20;99.90
12520;DHT22;6325;49.540;8.364;2024-01-16T12:26:39;3.90;99.90
12520;DHT22;6325;49.540;8.364;2024-01-16T12:29:06;5.20;99.90
12520;DHT22;6325;49.540;8.364;2024-01-16T12:31:33;5.50;99.90
12520;DHT22;6325;49.540;8.364;2024-01-16T12:34:08;6.10;99.90
12520;DHT22;6325;49.540;8.364;2024-01-16T12:36:36;5.50;99.90
12520;DHT22;6325;49.540;8.364;2024-01-16T12:39:03;6.20;99.90
12520;DHT22;6325;49.540;8.364;2024-01-16T12:41:34;7.00;99.90
12520;DHT22;6325;49.540;8.364;2024-01-16T12:44:03;7.40;99.90
12520;DHT22;6325;49.540;8.364;2024-01-16T12:46:30;7.80;99.90
12520;DHT22;6325;49.540;8.364;2024-01-16T12:49:01;8.20;99.90
12520;DHT22;6325;49.540;8.364;2024-01-16T12:51:29;8.60;99.90
12520;DHT22;6325;49.540;8.364;2024-01-16T12:54:10;7.60;99.90
12520;DHT22;6325;49.540;8.364;2024-01-16T12:56:38;7.50;99.90
12520;DHT22;6325;49.540;8.364;2024-01-16T12:59:09;6.50;99.90
12520;DHT22;6325;49.540;8.364;2024-01-16T13:01:39;6.30;99.90
12520;DHT22;6325;49.540;8.364;2024-01-16T13:04:08;6.40;99.90
12520;DHT22;6325;49.540;8.364;2024-01-16T13:06:37;6.20;99.90
12520;DHT22;6325;49.540;8.364;2024-01-16T13:09:05;6.00;99.90
12520;DHT22;6325;49.540;8.364;2024-01-16T13:11:45;5.80;99.90
12520;DHT22;6325;49.540;8.364;2024-01-16T13:14:12;5.60;99.90
12520;DHT22;6325;49.540;8.364;2024-01-16T13:16:39;5.90;99.90
12520;DHT22;6325;49.540;8.364;2024-01-16T13:19:06;7.10;99.90
12520;DHT22;6325;49.540;8.364;2024-01-16T13:21:37;6.70;99.90
12520;DHT22;6325;49.540;8.364;2024-01-16T13:24:04;8.00;99.90
12520;DHT22;6325;49.540;8.364;2024-01-16T13:26:31;8.30;99.90
12520;DHT22;6325;49.540;8.364;2024-01-16T13:28:58;6.70;99.90
12520;DHT22;6325;49.540;8.364;2024-01-16T13:31:25;6.40;99.90
12520;DHT22;6325;49.540;8.364;2024-01-16T13:33:52;5.20;99.90
12520;DHT22;6325;49.540;8.364;2024-01-16T13:36:18;4.30;99.90
12520;DHT22;6325;49.540;8.364;2024-01-16T13:38:48;4.00;99.90
12520;DHT22;6325;49.540;8.364;2024-01-16T13:41:15;4.30;99.90
12520;DHT22;6325;49.540;8.364;2024-01-16T13:43:42;4.00;99.90
12520;DHT22;6325;49.540;8.364;2024-01-16T13:46:09;4.00;99.90
12520;DHT22;6325;49.540;8.364;2024-01-16T13:48:35;3.30;99.90
12520;DHT22;6325;49.540;8.364;2024-01-16T13:51:03;3.30;99.90
12520;DHT22;6325;49.540;8.364;2024-01-16T13:53:30;3.30;99.90
12520;DHT22;6325;49.540;8.364;2024-01-16T13:55:58;3.30;99.90
12520;DHT22;6325;49.540;8.364;2024-01-16T13:58:26;3.20;99.90
12520;DHT22;6325;49.540;8.364;2024-01-16T14:00:52;3.50;99.90
12520;DHT22;6325;49.540;8.364;2024-01-16T14:03:19;3.70;99.90
12520;DHT22;6325;49.540;8.364;2024-01-16T14:05:46;2.70;99.90
12520;DHT22;6325;49.540;8.364;2024-01-16T14:08:13;2.40;99.90
12520;DHT22;6325;49.540;8.364;2024-01-16T14:10:40;3.40;99.90
12520;DHT22;6325;49.540;8.364;2024-01-16T14:13:08;3.30;99.90
12520;DHT22;6325;49.540;8.364;2024-01-16T14:15:34;3.10;99.90
12520;DHT22;6325;49.540;8.364;2024-01-16T14:18:01;3.60;99.90
12520;DHT22;6325;49.540;8.364;2024-01-16T14:20:28;3.10;99.90
12520;DHT22;6325;49.540;8.364;2024-01-16T14:22:55;3.70;99.90
12520;DHT22;6325;49.540;8.364;2024-01-16T14:25:23;3.20;99.90
12520;DHT22;6325;49.540;8.364;2024-01-16T14:27:56;3.30;99.90
12520;DHT22;6325;49.540;8.364;2024-01-16T14:30:26;2.70;99.90
12520;DHT22;6325;49.540;8.364;2024-01-16T14:32:53;2.70;99.90
12520;DHT22;6325;49.540;8.364;2024-01-16T14:35:20;2.90;99.90
12520;DHT22;6325;49.540;8.364;2024-01-16T14:37:47;3.10;99.90
12520;DHT22;6325;49.540;8.364;2024-01-16T14:40:14;3.10;99.90
12520;DHT22;6325;49.540;8.364;2024-01-16T14:42:46;3.10;99.90
12520;DHT22;6325;49.540;8.364;2024-01-16T14:45:14;2.70;99.90
12520;DHT22;6325;49.540;8.364;2024-01-16T14:47:42;3.00;99.90
12520;DHT22;6325;49.540;8.364;2024-01-16T14:50:11;2.90;99.90
12520;DHT22;6325;49.540;8.364;2024-01-16T14:52:38;3.00;99.90
12520;DHT22;6325;49.540;8.364;2024-01-16T14:55:06;3.40;99.90
12520;DHT22;6325;49.540;8.364;2024-01-16T14:57:34;3.30;99.90
12520;DHT22;6325;49.540;8.364;2024-01-16T15:00:07;3.10;99.90
12520;DHT22;6325;49.540;8.364;2024-01-16T15:02:41;2.90;99.90
12520;DHT22;6325;49.540;8.364;2024-01-16T15:05:09;2.80;99.90
12520;DHT22;6325;49.540;8.364;2024-01-16T15:07:38;2.80;99.90
12520;DHT22;6325;49.540;8.364;2024-01-16T15:10:06;2.70;99.90
12520;DHT22;6325;49.540;8.364;2024-01-16T15:12:35;2.80;99.90
12520;DHT22;6325;49.540;8.364;2024-01-16T15:15:01;2.60;99.90
12520;DHT22;6325;49.540;8.364;2024-01-16T15:17:29;2.30;99.90
12520;DHT22;6325;49.540;8.364;2024-01-16T15:19:57;2.60;99.90
12520;DHT22;6325;49.540;8.364;2024-01-16T15:22:24;2.20;99.90
12520;DHT22;6325;49.540;8.364;2024-01-16T15:24:50;3.00;99.90
12520;DHT22;6325;49.540;8.364;2024-01-16T15:27:17;3.00;99.90
12520;DHT22;6325;49.540;8.364;2024-01-16T15:29:45;2.80;99.90
12520;DHT22;6325;49.540;8.364;2024-01-16T15:32:12;2.50;99.90
12520;DHT22;6325;49.540;8.364;2024-01-16T15:34:38;2.40;99.90
12520;DHT22;6325;49.540;8.364;2024-01-16T15:37:07;2.60;99.90
12520;DHT22;6325;49.540;8.364;2024-01-16T15:39:34;3.00;99.90
12520;DHT22;6325;49.540;8.364;2024-01-16T15:42:00;1.80;99.90
12520;DHT22;6325;49.540;8.364;2024-01-16T15:44:28;2.90;99.90
12520;DHT22;6325;49.540;8.364;2024-01-16T15:46:58;3.00;99.90
12520;DHT22;6325;49.540;8.364;2024-01-16T15:49:25;2.00;99.90
12520;DHT22;6325;49.540;8.364;2024-01-16T15:51:53;2.60;99.90
12520;DHT22;6325;49.540;8.364;2024-01-16T15:54:21;2.00;99.90
12520;DHT22;6325;49.540;8.364;2024-01-16T15:56:49;1.90;99.90
12520;DHT22;6325;49.540;8.364;2024-01-16T15:59:15;1.50;99.90
12520;DHT22;6325;49.540;8.364;2024-01-16T16:01:42;2.30;99.90
12520;DHT22;6325;49.540;8.364;2024-01-16T16:04:09;1.60;99.90
12520;DHT22;6325;49.540;8.364;2024-01-16T16:06:37;1.70;99.90